Etusivu
METAR-TAF:

METAR-TAF

Lentoasemat :

Minocqua / Woodruff, Wisconsin, Yhdysvallat

Leveyspiiri: 45-56N, Pituuspiiri: 089-44W, korkeus merenpinnasta: 496 m

Tämänhetkinen sää

Tämä raportti tehtiin 10 minuuttia sitten, kello 03.55 UTC
Tuuli 9 kn pohjoisesta puuskistuen 17 kn:hen
Lämpötila 4°C
Kosteus 93%
Ilmanpaine 1016 hPa
Näkyvyys: 16.1 km
Pilvistä 700 ft:n korkeudessa

METAR: KARV 230355Z AUTO 01009G17KT 10SM OVC007 04/03 A3001 RMK AO2 T00400030

Aika: 23:05 (04:05 UTC)


TAF: puuttuu

Säähavainnot ja -ennusteet yli 4000 lentoasemalta (METAR- ja TAF-raportit).

Käytössä olevat sääasemat on merkitty karttaan keltaisilla ja punaisilla pisteillä.

Aseta hiiri pisteen päälle nähdäksesi sääaseman nimen.

Klikkaa sitten nähdäksesi säähavainnot ja -ennusteet.

Kartan vaihtaminen: klikkaa mustalla rastilla varustettuja vihreitä pisteitä, niin voit zoomata sisään; viivalla varustettua vihreää pistettä, niin voit zoomata ulos tai vihreitä nuolia, niin pääset viereisille kartoille.


METAR-TAF: